createdAt,value
2023-05-10T00:04:45.951Z,6.17
2023-05-10T00:09:48.951Z,6.16
2023-05-10T00:14:52.058Z,6.10
2023-05-10T00:19:55.572Z,6.01
2023-05-10T00:24:58.985Z,5.90
2023-05-10T00:30:02.120Z,5.77
2023-05-10T00:35:05.403Z,5.65
2023-05-10T00:40:08.804Z,5.55
2023-05-10T00:45:12.730Z,5.43
2023-05-10T00:50:17.032Z,5.32
2023-05-10T00:55:21.102Z,5.22
2023-05-10T01:00:24.104Z,5.13
2023-05-10T01:05:28.744Z,5.10
2023-05-10T01:10:32.369Z,5.14
2023-05-10T01:15:35.913Z,5.16
2023-05-10T01:20:42.988Z,5.16
2023-05-10T01:25:46.087Z,5.12
2023-05-10T01:30:59.751Z,5.11
2023-05-10T01:36:07.867Z,5.09
2023-05-10T01:41:16.192Z,5.06
2023-05-10T01:46:21.863Z,5.01
2023-05-10T01:51:26.801Z,4.95
2023-05-10T01:56:32.255Z,4.92
2023-05-10T02:01:38.047Z,4.91
2023-05-10T02:06:42.564Z,4.92
2023-05-10T02:11:45.564Z,4.96
2023-05-10T02:16:49.640Z,4.99
2023-05-10T02:21:53.214Z,4.99
2023-05-10T02:26:59.386Z,4.99
2023-05-10T02:32:03.362Z,4.98
2023-05-10T02:37:07.359Z,4.98
2023-05-10T02:42:14.953Z,4.96
2023-05-10T02:47:19.390Z,4.93
2023-05-10T02:52:30.488Z,4.93
2023-05-10T02:57:35.128Z,4.95
2023-05-10T03:02:38.166Z,4.97
2023-05-10T03:07:41.548Z,5.01
2023-05-10T03:12:50.702Z,5.05
2023-05-10T03:17:58.665Z,5.10
2023-05-10T03:23:05.985Z,5.16
2023-05-10T03:28:10.141Z,5.23
2023-05-10T03:33:14.480Z,5.33
2023-05-10T03:38:17.480Z,5.46
2023-05-10T03:43:20.586Z,5.63
2023-05-10T03:48:23.485Z,5.84
2023-05-10T03:53:26.695Z,6.17
2023-05-10T03:58:29.705Z,7.11
2023-05-10T04:03:32.778Z,9.02
2023-05-10T04:08:36.222Z,10.86
2023-05-10T04:13:39.736Z,12.29
2023-05-10T04:18:42.845Z,13.48
2023-05-10T04:23:46.052Z,14.26
2023-05-10T04:28:49.156Z,14.72
2023-05-10T04:33:52.670Z,15.22
2023-05-10T04:38:55.768Z,15.66
2023-05-10T04:43:58.789Z,16.32
2023-05-10T04:49:02.293Z,16.93
2023-05-10T04:54:06.774Z,17.43
2023-05-10T04:59:10.149Z,17.86
2023-05-10T05:04:13.041Z,18.39
2023-05-10T05:09:16.148Z,18.78
2023-05-10T05:14:19.151Z,19.35
2023-05-10T05:19:22.150Z,20.07
2023-05-10T05:24:25.459Z,20.68
2023-05-10T05:29:28.998Z,20.82
2023-05-10T05:34:32.085Z,20.65
2023-05-10T05:39:37.456Z,20.90
2023-05-10T05:44:40.751Z,21.44
2023-05-10T05:49:43.858Z,21.75
2023-05-10T05:54:46.863Z,22.17
2023-05-10T05:59:49.862Z,22.31
2023-05-10T06:04:53.071Z,22.70
2023-05-10T06:09:55.971Z,22.71
2023-05-10T06:14:58.871Z,22.86
2023-05-10T06:20:02.144Z,23.30
2023-05-10T06:25:05.808Z,23.60
2023-05-10T06:30:13.428Z,23.57
2023-05-10T06:35:16.935Z,23.75
2023-05-10T06:40:20.640Z,23.80
2023-05-10T06:45:23.749Z,24.26
2023-05-10T06:50:26.998Z,24.81
2023-05-10T06:55:30.484Z,25.75
2023-05-10T07:00:33.512Z,27.25
2023-05-10T07:05:36.804Z,28.12
2023-05-10T07:10:40.006Z,28.83
2023-05-10T07:15:43.619Z,28.31
2023-05-10T07:20:46.962Z,27.77
2023-05-10T07:25:50.950Z,27.68
2023-05-10T07:30:54.006Z,28.09
2023-05-10T07:35:57.005Z,27.58
2023-05-10T07:40:59.959Z,27.24
2023-05-10T07:46:03.120Z,27.26
2023-05-10T07:51:07.715Z,28.22
2023-05-10T07:56:28.524Z,27.57
2023-05-10T08:01:33.603Z,27.57
2023-05-10T08:06:36.682Z,27.95
2023-05-10T08:11:39.597Z,26.84
2023-05-10T08:16:42.583Z,26.75
2023-05-10T08:21:46.108Z,27.04
2023-05-10T08:26:49.533Z,26.27
2023-05-10T08:31:52.978Z,25.86
2023-05-10T08:36:56.033Z,25.59
2023-05-10T08:42:03.146Z,25.45
2023-05-10T08:47:10.843Z,25.36
2023-05-10T08:52:14.630Z,25.40
2023-05-10T08:57:18.390Z,25.38
2023-05-10T09:02:21.712Z,25.15
2023-05-10T09:07:25.009Z,24.24
2023-05-10T09:12:30.284Z,23.80
2023-05-10T09:17:35.014Z,23.45
2023-05-10T09:22:39.048Z,23.45
2023-05-10T09:27:43.203Z,23.69
2023-05-10T09:32:47.657Z,23.45
2023-05-10T09:37:52.449Z,23.33
2023-05-10T09:42:57.189Z,23.49
2023-05-10T09:48:01.993Z,23.29
2023-05-10T09:53:05.134Z,22.57
2023-05-10T09:58:12.021Z,21.65
2023-05-10T10:03:16.490Z,20.67
2023-05-10T10:08:19.592Z,19.99
2023-05-10T10:13:22.713Z,19.52
2023-05-10T10:18:28.414Z,19.34
2023-05-10T10:23:31.769Z,19.13
2023-05-10T10:28:37.747Z,19.05
2023-05-10T10:33:53.544Z,19.19
2023-05-10T10:39:00.868Z,19.14
2023-05-10T10:44:23.469Z,18.95
2023-05-10T10:49:26.620Z,18.89
2023-05-10T10:54:29.779Z,18.95
2023-05-10T10:59:32.932Z,19.22
2023-05-10T11:04:47.764Z,19.32
2023-05-10T11:09:51.133Z,19.32
2023-05-10T11:14:58.426Z,19.43
2023-05-10T11:20:08.695Z,19.44
2023-05-10T11:25:12.332Z,19.60
2023-05-10T11:30:16.586Z,19.67
2023-05-10T11:35:19.865Z,19.47
2023-05-10T11:40:24.920Z,19.41
2023-05-10T11:45:29.318Z,19.54
2023-05-10T11:50:32.707Z,19.69
2023-05-10T11:55:35.867Z,19.88
2023-05-10T12:00:39.178Z,19.79
2023-05-10T12:05:43.246Z,19.53
2023-05-10T12:10:46.409Z,19.57
2023-05-10T12:15:49.418Z,19.65
2023-05-10T12:20:55.793Z,19.54
2023-05-10T12:26:04.017Z,19.45
2023-05-10T12:31:07.643Z,19.61
2023-05-10T12:36:11.359Z,19.80
2023-05-10T12:41:16.143Z,19.82
2023-05-10T12:46:20.159Z,19.77
2023-05-10T12:51:24.059Z,19.78
2023-05-10T12:56:27.286Z,19.87
2023-05-10T13:01:30.324Z,19.83
2023-05-10T13:06:33.368Z,19.78
2023-05-10T13:11:36.378Z,19.89
2023-05-10T13:16:39.396Z,19.89
2023-05-10T13:21:42.683Z,19.62
2023-05-10T13:26:46.109Z,19.51
2023-05-10T13:31:50.666Z,19.52
2023-05-10T13:36:55.084Z,19.49
2023-05-10T13:41:58.085Z,19.65
2023-05-10T13:47:01.106Z,19.64
2023-05-10T13:52:08.202Z,19.79
2023-05-10T13:57:13.883Z,19.85
2023-05-10T14:02:17.268Z,19.92
2023-05-10T14:07:20.393Z,19.93
2023-05-10T14:12:23.576Z,19.95
2023-05-10T14:17:26.694Z,19.93
2023-05-10T14:22:30.214Z,19.85
2023-05-10T14:27:33.621Z,19.81
2023-05-10T14:32:37.981Z,19.83
2023-05-10T14:37:41.769Z,19.74
2023-05-10T14:42:45.188Z,19.63
2023-05-10T14:47:49.030Z,19.52
2023-05-10T14:52:52.307Z,19.39
2023-05-10T14:57:55.929Z,19.18
2023-05-10T15:02:59.082Z,19.15
2023-05-10T15:08:02.563Z,19.08
2023-05-10T15:13:06.284Z,19.05
2023-05-10T15:18:12.316Z,18.99
2023-05-10T15:23:15.344Z,18.78
2023-05-10T15:28:18.561Z,18.71
2023-05-10T15:33:22.286Z,18.70
2023-05-10T15:38:25.694Z,18.71
2023-05-10T15:43:28.945Z,18.67
2023-05-10T15:48:32.620Z,18.69
2023-05-10T15:53:36.442Z,18.65
2023-05-10T15:58:39.949Z,18.57
2023-05-10T16:03:43.366Z,18.56
2023-05-10T16:08:46.378Z,18.52
2023-05-10T16:13:49.477Z,18.43
2023-05-10T16:18:53.169Z,18.35
2023-05-10T16:23:56.813Z,18.31
2023-05-10T16:28:59.821Z,18.30
2023-05-10T16:34:03.341Z,18.24
2023-05-10T16:39:07.060Z,18.20
2023-05-10T16:44:11.393Z,18.10
2023-05-10T16:49:14.904Z,17.95
2023-05-10T16:54:19.050Z,17.86
2023-05-10T16:59:22.664Z,17.77
2023-05-10T17:04:25.777Z,17.68
2023-05-10T17:09:32.182Z,17.59
2023-05-10T17:14:36.002Z,17.46
2023-05-10T17:19:39.616Z,17.33
2023-05-10T17:24:45.351Z,17.21
2023-05-10T17:29:48.988Z,17.08
2023-05-10T17:34:52.395Z,16.92
2023-05-10T17:39:55.902Z,16.78
2023-05-10T17:44:59.932Z,16.61
2023-05-10T17:50:04.387Z,16.46
2023-05-10T17:55:09.139Z,16.30
2023-05-10T18:00:13.053Z,16.13
2023-05-10T18:05:16.985Z,15.94
2023-05-10T18:10:21.198Z,15.74
2023-05-10T18:15:26.255Z,15.55
2023-05-10T18:20:29.765Z,15.36
2023-05-10T18:25:33.899Z,15.18
2023-05-10T18:30:37.806Z,15.01
2023-05-10T18:35:41.448Z,14.87
2023-05-10T18:40:44.941Z,14.75
2023-05-10T18:45:49.056Z,14.62
2023-05-10T18:50:52.708Z,14.48
2023-05-10T18:55:57.970Z,14.31
2023-05-10T19:01:01.585Z,14.13
2023-05-10T19:06:05.182Z,13.95
2023-05-10T19:11:08.802Z,13.77
2023-05-10T19:16:15.216Z,13.61
2023-05-10T19:21:18.480Z,13.48
2023-05-10T19:26:23.386Z,13.34
2023-05-10T19:31:27.320Z,13.22
2023-05-10T19:36:32.004Z,13.10
2023-05-10T19:41:36.703Z,12.99
2023-05-10T19:46:40.485Z,12.86
2023-05-10T19:51:45.099Z,12.72
2023-05-10T19:56:48.824Z,12.58
2023-05-10T20:01:52.233Z,12.43
2023-05-10T20:06:56.169Z,12.22
2023-05-10T20:11:59.914Z,11.99
2023-05-10T20:17:03.738Z,11.75
2023-05-10T20:22:09.712Z,11.52
2023-05-10T20:27:18.147Z,11.25
2023-05-10T20:32:21.657Z,10.95
2023-05-10T20:37:25.312Z,10.69
2023-05-10T20:42:28.675Z,10.45
2023-05-10T20:47:32.942Z,10.25
2023-05-10T20:52:36.015Z,10.05
2023-05-10T20:57:39.921Z,9.83
2023-05-10T21:02:45.246Z,9.66
2023-05-10T21:07:49.600Z,9.52
2023-05-10T21:12:52.761Z,9.33
2023-05-10T21:17:56.000Z,9.11
2023-05-10T21:22:59.271Z,8.92
2023-05-10T21:28:02.344Z,8.75
2023-05-10T21:33:05.460Z,8.60
2023-05-10T21:38:09.803Z,8.46
2023-05-10T21:43:12.905Z,8.30
2023-05-10T21:48:15.976Z,8.19
2023-05-10T21:53:19.006Z,8.08
2023-05-10T21:58:22.547Z,7.96
2023-05-10T22:03:26.654Z,7.83
2023-05-10T22:08:29.955Z,7.73
2023-05-10T22:13:32.955Z,7.65
2023-05-10T22:18:36.738Z,7.60
2023-05-10T22:23:39.784Z,7.53
2023-05-10T22:28:42.886Z,7.46
2023-05-10T22:33:45.994Z,7.48
2023-05-10T22:38:48.997Z,7.51
2023-05-10T22:43:52.004Z,7.53
2023-05-10T22:48:55.452Z,7.54
2023-05-10T22:53:58.418Z,7.56
2023-05-10T22:59:01.534Z,7.58
2023-05-10T23:04:04.639Z,7.62
2023-05-10T23:09:08.248Z,7.64
2023-05-10T23:14:11.249Z,7.67
2023-05-10T23:19:14.093Z,7.68
2023-05-10T23:24:17.868Z,7.64
2023-05-10T23:29:20.771Z,7.56
2023-05-10T23:34:23.770Z,7.47
2023-05-10T23:39:27.254Z,7.38
2023-05-10T23:44:30.299Z,7.24
2023-05-10T23:49:33.303Z,7.09
2023-05-10T23:54:36.404Z,6.95
2023-05-10T23:59:39.329Z,6.83
